sensor_id;sensor_type;location;lat;lon;timestamp;temperature;humidity
38684;DHT22;24910;53.248;-6.134;2024-02-15T00:00:19;13.50;93.30
38684;DHT22;24910;53.248;-6.134;2024-02-15T00:02:49;13.50;93.30
38684;DHT22;24910;53.248;-6.134;2024-02-15T00:05:19;13.50;93.40
38684;DHT22;24910;53.248;-6.134;2024-02-15T00:07:48;13.50;93.30
38684;DHT22;24910;53.248;-6.134;2024-02-15T00:10:19;13.50;93.40
38684;DHT22;24910;53.248;-6.134;2024-02-15T00:12:51;13.50;93.40
38684;DHT22;24910;53.248;-6.134;2024-02-15T00:15:20;13.50;93.40
38684;DHT22;24910;53.248;-6.134;2024-02-15T00:17:50;13.50;93.40
38684;DHT22;24910;53.248;-6.134;2024-02-15T00:20:20;13.60;93.40
38684;DHT22;24910;53.248;-6.134;2024-02-15T00:22:49;13.50;93.40
38684;DHT22;24910;53.248;-6.134;2024-02-15T00:25:21;13.60;93.40
38684;DHT22;24910;53.248;-6.134;2024-02-15T00:27:50;13.60;93.40
38684;DHT22;24910;53.248;-6.134;2024-02-15T00:30:20;13.60;93.40
38684;DHT22;24910;53.248;-6.134;2024-02-15T00:32:49;13.60;93.40
38684;DHT22;24910;53.248;-6.134;2024-02-15T00:35:19;13.60;93.40
38684;DHT22;24910;53.248;-6.134;2024-02-15T00:37:50;13.60;93.40
38684;DHT22;24910;53.248;-6.134;2024-02-15T00:40:21;13.60;93.40
38684;DHT22;24910;53.248;-6.134;2024-02-15T00:42:50;13.60;93.40
38684;DHT22;24910;53.248;-6.134;2024-02-15T00:45:19;13.70;93.40
38684;DHT22;24910;53.248;-6.134;2024-02-15T00:47:49;13.70;93.40
38684;DHT22;24910;53.248;-6.134;2024-02-15T00:50:18;13.70;93.40
38684;DHT22;24910;53.248;-6.134;2024-02-15T00:52:48;13.70;93.40
38684;DHT22;24910;53.248;-6.134;2024-02-15T00:55:17;13.70;93.40
38684;DHT22;24910;53.248;-6.134;2024-02-15T00:57:49;13.70;93.40
38684;DHT22;24910;53.248;-6.134;2024-02-15T01:00:19;13.70;93.40
38684;DHT22;24910;53.248;-6.134;2024-02-15T01:02:48;13.70;93.40
38684;DHT22;24910;53.248;-6.134;2024-02-15T01:05:18;13.70;93.40
38684;DHT22;24910;53.248;-6.134;2024-02-15T01:07:48;13.70;93.40
38684;DHT22;24910;53.248;-6.134;2024-02-15T01:10:17;13.70;93.40
38684;DHT22;24910;53.248;-6.134;2024-02-15T01:12:46;13.70;93.40
38684;DHT22;24910;53.248;-6.134;2024-02-15T01:15:18;13.70;93.40
38684;DHT22;24910;53.248;-6.134;2024-02-15T01:17:48;13.70;93.40
38684;DHT22;24910;53.248;-6.134;2024-02-15T01:20:18;13.60;93.40
38684;DHT22;24910;53.248;-6.134;2024-02-15T01:22:49;13.70;93.40
38684;DHT22;24910;53.248;-6.134;2024-02-15T01:25:19;13.70;93.40
38684;DHT22;24910;53.248;-6.134;2024-02-15T01:27:49;13.70;93.50
38684;DHT22;24910;53.248;-6.134;2024-02-15T01:30:20;13.60;93.40
38684;DHT22;24910;53.248;-6.134;2024-02-15T01:32:49;13.70;93.50
38684;DHT22;24910;53.248;-6.134;2024-02-15T01:35:19;13.70;93.50
38684;DHT22;24910;53.248;-6.134;2024-02-15T01:37:48;13.70;93.40
38684;DHT22;24910;53.248;-6.134;2024-02-15T01:40:17;13.70;93.40
38684;DHT22;24910;53.248;-6.134;2024-02-15T01:42:47;13.70;93.40
38684;DHT22;24910;53.248;-6.134;2024-02-15T01:45:17;13.70;93.40
38684;DHT22;24910;53.248;-6.134;2024-02-15T01:47:49;13.80;93.40
38684;DHT22;24910;53.248;-6.134;2024-02-15T01:50:20;13.80;93.40
38684;DHT22;24910;53.248;-6.134;2024-02-15T01:52:52;13.80;93.40
38684;DHT22;24910;53.248;-6.134;2024-02-15T01:55:25;13.80;93.40
38684;DHT22;24910;53.248;-6.134;2024-02-15T01:57:55;13.80;93.40
38684;DHT22;24910;53.248;-6.134;2024-02-15T02:00:24;13.80;93.40
38684;DHT22;24910;53.248;-6.134;2024-02-15T02:02:57;13.80;93.30
38684;DHT22;24910;53.248;-6.134;2024-02-15T02:05:31;13.90;93.40
38684;DHT22;24910;53.248;-6.134;2024-02-15T02:08:01;13.90;93.40
38684;DHT22;24910;53.248;-6.134;2024-02-15T02:10:32;13.90;93.40
38684;DHT22;24910;53.248;-6.134;2024-02-15T02:13:02;13.90;93.40
38684;DHT22;24910;53.248;-6.134;2024-02-15T02:15:32;13.90;93.40
38684;DHT22;24910;53.248;-6.134;2024-02-15T02:18:04;13.90;93.40
38684;DHT22;24910;53.248;-6.134;2024-02-15T02:20:35;13.90;93.40
38684;DHT22;24910;53.248;-6.134;2024-02-15T02:23:08;13.90;93.30
38684;DHT22;24910;53.248;-6.134;2024-02-15T02:25:41;13.90;93.40
38684;DHT22;24910;53.248;-6.134;2024-02-15T02:28:13;13.90;93.40
38684;DHT22;24910;53.248;-6.134;2024-02-15T02:30:43;13.90;93.40
38684;DHT22;24910;53.248;-6.134;2024-02-15T02:33:14;13.90;93.40
38684;DHT22;24910;53.248;-6.134;2024-02-15T02:35:48;13.90;93.40
38684;DHT22;24910;53.248;-6.134;2024-02-15T02:38:18;13.90;93.40
38684;DHT22;24910;53.248;-6.134;2024-02-15T02:40:49;13.90;93.40
38684;DHT22;24910;53.248;-6.134;2024-02-15T02:43:18;13.90;93.40
38684;DHT22;24910;53.248;-6.134;2024-02-15T02:45:48;13.80;93.80
38684;DHT22;24910;53.248;-6.134;2024-02-15T02:48:17;13.90;93.40
38684;DHT22;24910;53.248;-6.134;2024-02-15T02:50:47;13.80;93.40
38684;DHT22;24910;53.248;-6.134;2024-02-15T02:53:16;13.80;93.40
38684;DHT22;24910;53.248;-6.134;2024-02-15T02:55:46;13.80;93.40
38684;DHT22;24910;53.248;-6.134;2024-02-15T02:58:16;13.80;93.40
38684;DHT22;24910;53.248;-6.134;2024-02-15T03:00:46;13.80;93.40
38684;DHT22;24910;53.248;-6.134;2024-02-15T03:03:15;13.70;93.40
38684;DHT22;24910;53.248;-6.134;2024-02-15T03:05:45;13.70;93.50
38684;DHT22;24910;53.248;-6.134;2024-02-15T03:08:14;13.60;93.50
38684;DHT22;24910;53.248;-6.134;2024-02-15T03:10:45;13.60;93.50
38684;DHT22;24910;53.248;-6.134;2024-02-15T03:13:16;13.50;93.50
38684;DHT22;24910;53.248;-6.134;2024-02-15T03:15:47;13.50;93.50
38684;DHT22;24910;53.248;-6.134;2024-02-15T03:18:16;13.50;93.60
38684;DHT22;24910;53.248;-6.134;2024-02-15T03:20:46;13.50;93.60
38684;DHT22;24910;53.248;-6.134;2024-02-15T03:23:16;13.40;93.60
38684;DHT22;24910;53.248;-6.134;2024-02-15T03:25:46;13.50;93.60
38684;DHT22;24910;53.248;-6.134;2024-02-15T03:28:18;13.40;93.60
38684;DHT22;24910;53.248;-6.134;2024-02-15T03:30:49;13.40;93.60
38684;DHT22;24910;53.248;-6.134;2024-02-15T03:33:18;13.40;93.60
38684;DHT22;24910;53.248;-6.134;2024-02-15T03:35:54;13.40;93.60
38684;DHT22;24910;53.248;-6.134;2024-02-15T03:38:27;13.40;93.60
38684;DHT22;24910;53.248;-6.134;2024-02-15T03:40:57;13.40;93.60
38684;DHT22;24910;53.248;-6.134;2024-02-15T03:43:29;13.40;93.60
38684;DHT22;24910;53.248;-6.134;2024-02-15T03:45:58;13.40;93.60
38684;DHT22;24910;53.248;-6.134;2024-02-15T03:48:27;13.40;93.60
38684;DHT22;24910;53.248;-6.134;2024-02-15T03:50:57;13.40;93.60
38684;DHT22;24910;53.248;-6.134;2024-02-15T03:53:27;13.40;94.00
38684;DHT22;24910;53.248;-6.134;2024-02-15T03:55:59;13.40;93.60
38684;DHT22;24910;53.248;-6.134;2024-02-15T03:58:30;13.40;93.50
38684;DHT22;24910;53.248;-6.134;2024-02-15T04:01:00;13.40;93.50
38684;DHT22;24910;53.248;-6.134;2024-02-15T04:03:32;13.30;93.50
38684;DHT22;24910;53.248;-6.134;2024-02-15T04:06:02;13.30;93.50
38684;DHT22;24910;53.248;-6.134;2024-02-15T04:08:32;13.30;93.60
38684;DHT22;24910;53.248;-6.134;2024-02-15T04:11:07;13.20;93.60
38684;DHT22;24910;53.248;-6.134;2024-02-15T04:13:39;13.20;93.70
38684;DHT22;24910;53.248;-6.134;2024-02-15T04:16:08;13.10;93.70
38684;DHT22;24910;53.248;-6.134;2024-02-15T04:18:38;13.10;93.70
38684;DHT22;24910;53.248;-6.134;2024-02-15T04:21:07;13.10;93.70
38684;DHT22;24910;53.248;-6.134;2024-02-15T04:23:36;13.10;93.70
38684;DHT22;24910;53.248;-6.134;2024-02-15T04:26:07;13.10;93.70
38684;DHT22;24910;53.248;-6.134;2024-02-15T04:28:36;13.10;93.80
38684;DHT22;24910;53.248;-6.134;2024-02-15T04:31:07;13.00;93.80
38684;DHT22;24910;53.248;-6.134;2024-02-15T04:33:36;13.00;93.80
38684;DHT22;24910;53.248;-6.134;2024-02-15T04:36:08;13.00;93.80
38684;DHT22;24910;53.248;-6.134;2024-02-15T04:38:39;13.00;93.80
38684;DHT22;24910;53.248;-6.134;2024-02-15T04:41:08;13.00;93.80
38684;DHT22;24910;53.248;-6.134;2024-02-15T04:43:37;13.00;93.80
38684;DHT22;24910;53.248;-6.134;2024-02-15T04:46:10;13.00;93.80
38684;DHT22;24910;53.248;-6.134;2024-02-15T04:48:39;13.00;93.70
38684;DHT22;24910;53.248;-6.134;2024-02-15T04:51:10;13.00;93.80
38684;DHT22;24910;53.248;-6.134;2024-02-15T04:53:40;13.00;93.70
38684;DHT22;24910;53.248;-6.134;2024-02-15T04:56:09;13.00;93.70
38684;DHT22;24910;53.248;-6.134;2024-02-15T04:58:42;13.00;93.70
38684;DHT22;24910;53.248;-6.134;2024-02-15T05:01:15;13.00;93.70
38684;DHT22;24910;53.248;-6.134;2024-02-15T05:03:45;13.00;93.70
38684;DHT22;24910;53.248;-6.134;2024-02-15T05:06:15;13.00;93.70
38684;DHT22;24910;53.248;-6.134;2024-02-15T05:08:44;13.00;93.70
38684;DHT22;24910;53.248;-6.134;2024-02-15T05:11:15;13.00;93.70
38684;DHT22;24910;53.248;-6.134;2024-02-15T05:13:46;13.00;93.70
38684;DHT22;24910;53.248;-6.134;2024-02-15T05:16:19;13.00;93.70
38684;DHT22;24910;53.248;-6.134;2024-02-15T05:18:49;13.00;93.70
38684;DHT22;24910;53.248;-6.134;2024-02-15T05:21:18;13.00;93.70
38684;DHT22;24910;53.248;-6.134;2024-02-15T05:23:48;13.00;93.70
38684;DHT22;24910;53.248;-6.134;2024-02-15T05:26:19;13.00;93.70
38684;DHT22;24910;53.248;-6.134;2024-02-15T05:28:51;13.00;93.80
38684;DHT22;24910;53.248;-6.134;2024-02-15T05:31:22;13.00;93.80
38684;DHT22;24910;53.248;-6.134;2024-02-15T05:33:53;13.00;93.80
38684;DHT22;24910;53.248;-6.134;2024-02-15T05:36:23;12.90;93.80
38684;DHT22;24910;53.248;-6.134;2024-02-15T05:38:53;12.90;93.80
38684;DHT22;24910;53.248;-6.134;2024-02-15T05:41:23;12.90;93.80
38684;DHT22;24910;53.248;-6.134;2024-02-15T05:43:52;12.90;93.80
38684;DHT22;24910;53.248;-6.134;2024-02-15T05:46:23;12.80;93.80
38684;DHT22;24910;53.248;-6.134;2024-02-15T05:48:52;12.80;93.90
38684;DHT22;24910;53.248;-6.134;2024-02-15T05:51:22;12.80;93.90
38684;DHT22;24910;53.248;-6.134;2024-02-15T05:53:52;12.80;93.90
38684;DHT22;24910;53.248;-6.134;2024-02-15T05:56:26;12.70;93.90
38684;DHT22;24910;53.248;-6.134;2024-02-15T05:58:57;12.70;94.00
38684;DHT22;24910;53.248;-6.134;2024-02-15T06:01:28;12.70;94.00
38684;DHT22;24910;53.248;-6.134;2024-02-15T06:03:58;12.70;94.00
38684;DHT22;24910;53.248;-6.134;2024-02-15T06:06:28;12.70;94.00
38684;DHT22;24910;53.248;-6.134;2024-02-15T06:08:58;12.70;94.00
38684;DHT22;24910;53.248;-6.134;2024-02-15T06:11:28;12.70;94.00
38684;DHT22;24910;53.248;-6.134;2024-02-15T06:13:58;12.70;94.00
38684;DHT22;24910;53.248;-6.134;2024-02-15T06:16:28;12.70;93.90
38684;DHT22;24910;53.248;-6.134;2024-02-15T06:18:58;12.70;93.90
38684;DHT22;24910;53.248;-6.134;2024-02-15T06:21:27;12.70;93.90
38684;DHT22;24910;53.248;-6.134;2024-02-15T06:23:57;12.70;93.90
38684;DHT22;24910;53.248;-6.134;2024-02-15T06:26:26;12.70;93.90
38684;DHT22;24910;53.248;-6.134;2024-02-15T06:28:56;12.70;93.90
38684;DHT22;24910;53.248;-6.134;2024-02-15T06:31:43;12.70;93.90
38684;DHT22;24910;53.248;-6.134;2024-02-15T06:34:30;12.70;93.90
38684;DHT22;24910;53.248;-6.134;2024-02-15T06:37:34;12.70;93.80
38684;DHT22;24910;53.248;-6.134;2024-02-15T06:40:21;12.70;93.80
38684;DHT22;24910;53.248;-6.134;2024-02-15T06:42:51;12.70;93.80
38684;DHT22;24910;53.248;-6.134;2024-02-15T06:45:20;12.80;93.90
38684;DHT22;24910;53.248;-6.134;2024-02-15T06:47:52;12.80;93.80
38684;DHT22;24910;53.248;-6.134;2024-02-15T06:50:22;12.80;93.80
38684;DHT22;24910;53.248;-6.134;2024-02-15T06:52:51;12.90;93.80
38684;DHT22;24910;53.248;-6.134;2024-02-15T06:55:21;12.90;93.80
38684;DHT22;24910;53.248;-6.134;2024-02-15T06:57:50;12.90;93.80
38684;DHT22;24910;53.248;-6.134;2024-02-15T07:00:19;12.90;93.80
38684;DHT22;24910;53.248;-6.134;2024-02-15T07:02:48;12.90;93.80
38684;DHT22;24910;53.248;-6.134;2024-02-15T07:05:18;13.00;93.80
38684;DHT22;24910;53.248;-6.134;2024-02-15T07:07:48;12.90;93.80
38684;DHT22;24910;53.248;-6.134;2024-02-15T07:10:17;12.90;93.80
38684;DHT22;24910;53.248;-6.134;2024-02-15T07:12:47;12.90;93.90
38684;DHT22;24910;53.248;-6.134;2024-02-15T07:15:17;12.90;93.90
38684;DHT22;24910;53.248;-6.134;2024-02-15T07:17:46;13.00;93.90
38684;DHT22;24910;53.248;-6.134;2024-02-15T07:20:17;13.00;93.90
38684;DHT22;24910;53.248;-6.134;2024-02-15T07:22:47;12.90;93.90
38684;DHT22;24910;53.248;-6.134;2024-02-15T07:25:16;13.00;93.90
38684;DHT22;24910;53.248;-6.134;2024-02-15T07:27:46;13.00;93.80
38684;DHT22;24910;53.248;-6.134;2024-02-15T07:30:15;12.90;93.90
38684;DHT22;24910;53.248;-6.134;2024-02-15T07:32:45;12.90;93.90
38684;DHT22;24910;53.248;-6.134;2024-02-15T07:35:14;12.80;93.90
38684;DHT22;24910;53.248;-6.134;2024-02-15T07:37:53;12.80;94.00
38684;DHT22;24910;53.248;-6.134;2024-02-15T07:40:25;12.80;94.00
38684;DHT22;24910;53.248;-6.134;2024-02-15T07:42:57;12.80;94.00
38684;DHT22;24910;53.248;-6.134;2024-02-15T07:45:26;12.80;94.00
38684;DHT22;24910;53.248;-6.134;2024-02-15T07:47:56;12.80;94.10
38684;DHT22;24910;53.248;-6.134;2024-02-15T07:50:25;12.70;94.00
38684;DHT22;24910;53.248;-6.134;2024-02-15T07:52:56;12.80;94.10
38684;DHT22;24910;53.248;-6.134;2024-02-15T07:55:26;12.70;94.10
38684;DHT22;24910;53.248;-6.134;2024-02-15T07:57:56;12.80;94.10
38684;DHT22;24910;53.248;-6.134;2024-02-15T08:00:26;12.80;94.10
38684;DHT22;24910;53.248;-6.134;2024-02-15T08:02:56;12.80;94.10
38684;DHT22;24910;53.248;-6.134;2024-02-15T08:05:27;12.80;94.10
38684;DHT22;24910;53.248;-6.134;2024-02-15T08:07:57;12.80;94.10
38684;DHT22;24910;53.248;-6.134;2024-02-15T08:10:27;12.80;94.10
38684;DHT22;24910;53.248;-6.134;2024-02-15T08:12:56;12.80;94.10
38684;DHT22;24910;53.248;-6.134;2024-02-15T08:15:26;12.80;94.10
38684;DHT22;24910;53.248;-6.134;2024-02-15T08:17:56;12.80;94.10
38684;DHT22;24910;53.248;-6.134;2024-02-15T08:20:26;12.90;94.10
38684;DHT22;24910;53.248;-6.134;2024-02-15T08:23:01;12.80;94.10
38684;DHT22;24910;53.248;-6.134;2024-02-15T08:25:30;12.90;94.10
38684;DHT22;24910;53.248;-6.134;2024-02-15T08:28:00;12.80;94.10
38684;DHT22;24910;53.248;-6.134;2024-02-15T08:30:33;12.90;94.10
38684;DHT22;24910;53.248;-6.134;2024-02-15T08:33:05;12.90;94.10
38684;DHT22;24910;53.248;-6.134;2024-02-15T08:35:34;12.90;94.10
38684;DHT22;24910;53.248;-6.134;2024-02-15T08:38:06;12.90;94.10
38684;DHT22;24910;53.248;-6.134;2024-02-15T08:40:35;12.90;94.10
38684;DHT22;24910;53.248;-6.134;2024-02-15T08:43:04;12.90;94.10
38684;DHT22;24910;53.248;-6.134;2024-02-15T08:45:34;12.90;94.10
38684;DHT22;24910;53.248;-6.134;2024-02-15T08:48:04;13.00;94.10
38684;DHT22;24910;53.248;-6.134;2024-02-15T08:50:33;13.00;94.10
38684;DHT22;24910;53.248;-6.134;2024-02-15T08:53:03;13.00;94.10
38684;DHT22;24910;53.248;-6.134;2024-02-15T08:55:35;13.00;94.10
38684;DHT22;24910;53.248;-6.134;2024-02-15T08:58:04;13.10;94.10
38684;DHT22;24910;53.248;-6.134;2024-02-15T09:00:34;13.10;94.00
38684;DHT22;24910;53.248;-6.134;2024-02-15T09:03:04;13.10;94.00
38684;DHT22;24910;53.248;-6.134;2024-02-15T09:05:35;13.10;94.00
38684;DHT22;24910;53.248;-6.134;2024-02-15T09:08:05;13.20;94.00
38684;DHT22;24910;53.248;-6.134;2024-02-15T09:10:36;13.20;94.00
38684;DHT22;24910;53.248;-6.134;2024-02-15T09:13:07;13.20;94.10
38684;DHT22;24910;53.248;-6.134;2024-02-15T09:15:36;13.20;94.10
38684;DHT22;24910;53.248;-6.134;2024-02-15T09:18:07;13.20;94.10
38684;DHT22;24910;53.248;-6.134;2024-02-15T09:20:37;13.20;94.10
38684;DHT22;24910;53.248;-6.134;2024-02-15T09:23:12;13.20;94.10
38684;DHT22;24910;53.248;-6.134;2024-02-15T09:25:44;13.20;94.10
38684;DHT22;24910;53.248;-6.134;2024-02-15T09:28:13;13.20;94.10
38684;DHT22;24910;53.248;-6.134;2024-02-15T09:30:42;13.20;94.10
38684;DHT22;24910;53.248;-6.134;2024-02-15T09:33:14;13.20;94.20
38684;DHT22;24910;53.248;-6.134;2024-02-15T09:35:45;13.30;94.20
38684;DHT22;24910;53.248;-6.134;2024-02-15T09:38:14;13.30;94.20
38684;DHT22;24910;53.248;-6.134;2024-02-15T09:40:48;13.30;94.20
38684;DHT22;24910;53.248;-6.134;2024-02-15T09:43:18;13.40;94.20
38684;DHT22;24910;53.248;-6.134;2024-02-15T09:45:47;13.40;94.30
38684;DHT22;24910;53.248;-6.134;2024-02-15T09:48:17;13.50;94.10
38684;DHT22;24910;53.248;-6.134;2024-02-15T09:50:52;13.50;94.10
38684;DHT22;24910;53.248;-6.134;2024-02-15T09:53:23;13.60;94.10
38684;DHT22;24910;53.248;-6.134;2024-02-15T09:55:55;13.60;94.00
38684;DHT22;24910;53.248;-6.134;2024-02-15T09:58:32;13.60;94.40
38684;DHT22;24910;53.248;-6.134;2024-02-15T10:01:04;13.70;94.10
38684;DHT22;24910;53.248;-6.134;2024-02-15T10:03:38;13.70;94.10
38684;DHT22;24910;53.248;-6.134;2024-02-15T10:06:09;13.70;94.10
38684;DHT22;24910;53.248;-6.134;2024-02-15T10:08:38;13.80;94.10
38684;DHT22;24910;53.248;-6.134;2024-02-15T10:11:10;13.80;94.00
38684;DHT22;24910;53.248;-6.134;2024-02-15T10:13:39;13.80;94.00
38684;DHT22;24910;53.248;-6.134;2024-02-15T10:16:17;13.90;94.00
38684;DHT22;24910;53.248;-6.134;2024-02-15T10:18:46;13.90;94.00
38684;DHT22;24910;53.248;-6.134;2024-02-15T10:21:24;14.00;94.40
38684;DHT22;24910;53.248;-6.134;2024-02-15T10:24:04;14.00;94.00
38684;DHT22;24910;53.248;-6.134;2024-02-15T10:26:35;14.10;93.90
38684;DHT22;24910;53.248;-6.134;2024-02-15T10:29:06;14.10;93.90
38684;DHT22;24910;53.248;-6.134;2024-02-15T10:31:38;14.20;93.90
38684;DHT22;24910;53.248;-6.134;2024-02-15T10:34:14;14.20;93.80
38684;DHT22;24910;53.248;-6.134;2024-02-15T10:36:44;14.20;93.80
38684;DHT22;24910;53.248;-6.134;2024-02-15T10:39:14;14.20;93.80
38684;DHT22;24910;53.248;-6.134;2024-02-15T10:41:50;14.20;93.80
38684;DHT22;24910;53.248;-6.134;2024-02-15T10:44:22;14.30;94.20
38684;DHT22;24910;53.248;-6.134;2024-02-15T10:46:53;14.30;93.80
38684;DHT22;24910;53.248;-6.134;2024-02-15T10:49:23;14.40;93.80
38684;DHT22;24910;53.248;-6.134;2024-02-15T10:51:56;14.30;93.70
38684;DHT22;24910;53.248;-6.134;2024-02-15T10:54:41;14.40;93.70
38684;DHT22;24910;53.248;-6.134;2024-02-15T10:57:13;14.50;93.80
38684;DHT22;24910;53.248;-6.134;2024-02-15T10:59:53;14.50;93.80
38684;DHT22;24910;53.248;-6.134;2024-02-15T11:02:27;14.50;93.80
38684;DHT22;24910;53.248;-6.134;2024-02-15T11:05:02;14.60;93.80
38684;DHT22;24910;53.248;-6.134;2024-02-15T11:07:35;14.60;93.70
38684;DHT22;24910;53.248;-6.134;2024-02-15T11:10:06;14.60;93.80
38684;DHT22;24910;53.248;-6.134;2024-02-15T11:12:37;14.70;93.80
38684;DHT22;24910;53.248;-6.134;2024-02-15T11:15:09;14.70;93.80
38684;DHT22;24910;53.248;-6.134;2024-02-15T11:17:47;14.80;93.80
38684;DHT22;24910;53.248;-6.134;2024-02-15T11:20:45;14.80;93.80
38684;DHT22;24910;53.248;-6.134;2024-02-15T11:23:26;14.80;93.80
38684;DHT22;24910;53.248;-6.134;2024-02-15T11:25:59;14.90;93.80
38684;DHT22;24910;53.248;-6.134;2024-02-15T11:28:38;14.90;93.80
38684;DHT22;24910;53.248;-6.134;2024-02-15T11:31:08;14.90;93.80
38684;DHT22;24910;53.248;-6.134;2024-02-15T11:33:43;14.90;93.80
38684;DHT22;24910;53.248;-6.134;2024-02-15T11:36:13;14.90;93.80
38684;DHT22;24910;53.248;-6.134;2024-02-15T11:38:44;15.00;93.90
38684;DHT22;24910;53.248;-6.134;2024-02-15T11:41:18;15.00;93.80
38684;DHT22;24910;53.248;-6.134;2024-02-15T11:43:53;15.10;93.80
38684;DHT22;24910;53.248;-6.134;2024-02-15T11:46:27;15.10;93.80
38684;DHT22;24910;53.248;-6.134;2024-02-15T11:49:00;15.20;93.80
38684;DHT22;24910;53.248;-6.134;2024-02-15T11:51:33;15.40;93.70
38684;DHT22;24910;53.248;-6.134;2024-02-15T11:54:11;15.40;93.70
38684;DHT22;24910;53.248;-6.134;2024-02-15T11:56:51;15.50;93.60
38684;DHT22;24910;53.248;-6.134;2024-02-15T11:59:40;15.50;93.60
38684;DHT22;24910;53.248;-6.134;2024-02-15T12:02:22;15.60;93.60
38684;DHT22;24910;53.248;-6.134;2024-02-15T12:05:08;15.60;93.50
38684;DHT22;24910;53.248;-6.134;2024-02-15T12:07:55;15.60;93.50
38684;DHT22;24910;53.248;-6.134;2024-02-15T12:10:42;15.60;93.50
38684;DHT22;24910;53.248;-6.134;2024-02-15T12:13:29;15.60;93.60
38684;DHT22;24910;53.248;-6.134;2024-02-15T12:16:17;15.60;93.60
38684;DHT22;24910;53.248;-6.134;2024-02-15T12:19:04;15.60;93.70
38684;DHT22;24910;53.248;-6.134;2024-02-15T12:21:33;15.60;93.60
38684;DHT22;24910;53.248;-6.134;2024-02-15T12:24:04;15.70;93.60
38684;DHT22;24910;53.248;-6.134;2024-02-15T12:26:34;15.80;93.60
38684;DHT22;24910;53.248;-6.134;2024-02-15T12:29:04;15.70;93.60
38684;DHT22;24910;53.248;-6.134;2024-02-15T12:31:37;15.80;93.60
38684;DHT22;24910;53.248;-6.134;2024-02-15T12:34:07;15.80;93.60
38684;DHT22;24910;53.248;-6.134;2024-02-15T12:36:37;15.80;93.60
38684;DHT22;24910;53.248;-6.134;2024-02-15T12:39:07;15.80;93.60
38684;DHT22;24910;53.248;-6.134;2024-02-15T12:41:41;15.80;93.60
38684;DHT22;24910;53.248;-6.134;2024-02-15T12:44:10;15.80;93.60
38684;DHT22;24910;53.248;-6.134;2024-02-15T12:46:41;15.70;93.60
38684;DHT22;24910;53.248;-6.134;2024-02-15T12:49:28;15.80;93.70
38684;DHT22;24910;53.248;-6.134;2024-02-15T12:55:12;15.70;93.70
38684;DHT22;24910;53.248;-6.134;2024-02-15T12:57:44;15.70;93.70
38684;DHT22;24910;53.248;-6.134;2024-02-15T13:00:15;15.70;93.70
38684;DHT22;24910;53.248;-6.134;2024-02-15T13:02:50;15.80;93.70
38684;DHT22;24910;53.248;-6.134;2024-02-15T13:05:21;15.80;93.70
38684;DHT22;24910;53.248;-6.134;2024-02-15T13:07:52;15.80;93.70
38684;DHT22;24910;53.248;-6.134;2024-02-15T13:10:22;15.80;93.70
38684;DHT22;24910;53.248;-6.134;2024-02-15T13:12:52;15.90;93.60
38684;DHT22;24910;53.248;-6.134;2024-02-15T13:15:24;15.90;93.60
38684;DHT22;24910;53.248;-6.134;2024-02-15T13:18:03;16.00;93.60
38684;DHT22;24910;53.248;-6.134;2024-02-15T13:20:34;16.00;93.50
38684;DHT22;24910;53.248;-6.134;2024-02-15T13:23:07;16.00;93.50
38684;DHT22;24910;53.248;-6.134;2024-02-15T13:25:43;16.00;93.40
38684;DHT22;24910;53.248;-6.134;2024-02-15T13:28:13;16.00;93.50
38684;DHT22;24910;53.248;-6.134;2024-02-15T13:30:43;16.00;93.50
38684;DHT22;24910;53.248;-6.134;2024-02-15T13:33:15;15.90;93.50
38684;DHT22;24910;53.248;-6.134;2024-02-15T13:35:45;16.00;93.50
38684;DHT22;24910;53.248;-6.134;2024-02-15T13:38:15;16.00;93.50
38684;DHT22;24910;53.248;-6.134;2024-02-15T13:40:52;16.00;93.50
38684;DHT22;24910;53.248;-6.134;2024-02-15T13:43:24;15.90;93.50
38684;DHT22;24910;53.248;-6.134;2024-02-15T13:45:53;16.00;93.50
38684;DHT22;24910;53.248;-6.134;2024-02-15T13:48:24;15.90;93.50
38684;DHT22;24910;53.248;-6.134;2024-02-15T13:50:54;15.90;93.50
38684;DHT22;24910;53.248;-6.134;2024-02-15T13:53:23;15.90;93.50
38684;DHT22;24910;53.248;-6.134;2024-02-15T13:55:53;16.00;93.50
38684;DHT22;24910;53.248;-6.134;2024-02-15T13:58:23;16.00;93.50
38684;DHT22;24910;53.248;-6.134;2024-02-15T14:00:52;16.00;93.40
38684;DHT22;24910;53.248;-6.134;2024-02-15T14:03:21;16.00;93.40
38684;DHT22;24910;53.248;-6.134;2024-02-15T14:05:54;16.00;93.30
38684;DHT22;24910;53.248;-6.134;2024-02-15T14:08:23;16.00;93.30
38684;DHT22;24910;53.248;-6.134;2024-02-15T14:10:53;16.00;93.30
38684;DHT22;24910;53.248;-6.134;2024-02-15T14:13:24;15.90;93.30
38684;DHT22;24910;53.248;-6.134;2024-02-15T14:15:53;15.90;93.30
38684;DHT22;24910;53.248;-6.134;2024-02-15T14:18:23;15.90;93.30
38684;DHT22;24910;53.248;-6.134;2024-02-15T14:20:54;15.90;93.30
38684;DHT22;24910;53.248;-6.134;2024-02-15T14:23:23;15.90;93.30
38684;DHT22;24910;53.248;-6.134;2024-02-15T14:25:55;15.80;93.30
38684;DHT22;24910;53.248;-6.134;2024-02-15T14:28:28;15.90;93.30
38684;DHT22;24910;53.248;-6.134;2024-02-15T14:30:57;15.90;93.30
38684;DHT22;24910;53.248;-6.134;2024-02-15T14:33:44;15.90;93.30
38684;DHT22;24910;53.248;-6.134;2024-02-15T14:36:16;15.90;93.20
38684;DHT22;24910;53.248;-6.134;2024-02-15T14:38:45;15.90;93.20
38684;DHT22;24910;53.248;-6.134;2024-02-15T14:41:15;15.90;93.20
38684;DHT22;24910;53.248;-6.134;2024-02-15T14:43:59;15.90;93.20
38684;DHT22;24910;53.248;-6.134;2024-02-15T14:46:29;15.90;93.20
38684;DHT22;24910;53.248;-6.134;2024-02-15T14:48:58;15.90;93.20
38684;DHT22;24910;53.248;-6.134;2024-02-15T14:51:29;15.90;93.10
38684;DHT22;24910;53.248;-6.134;2024-02-15T14:53:59;15.80;93.10
38684;DHT22;24910;53.248;-6.134;2024-02-15T14:56:29;15.80;93.20
38684;DHT22;24910;53.248;-6.134;2024-02-15T14:59:05;15.80;93.20
38684;DHT22;24910;53.248;-6.134;2024-02-15T15:01:35;15.70;93.10
38684;DHT22;24910;53.248;-6.134;2024-02-15T15:04:05;15.80;93.10
38684;DHT22;24910;53.248;-6.134;2024-02-15T15:06:38;15.80;93.10
38684;DHT22;24910;53.248;-6.134;2024-02-15T15:09:24;15.80;93.10
38684;DHT22;24910;53.248;-6.134;2024-02-15T15:12:11;15.80;93.00
38684;DHT22;24910;53.248;-6.134;2024-02-15T15:14:58;15.80;93.40
38684;DHT22;24910;53.248;-6.134;2024-02-15T15:17:28;15.70;92.90
38684;DHT22;24910;53.248;-6.134;2024-02-15T15:19:57;15.70;92.90
38684;DHT22;24910;53.248;-6.134;2024-02-15T15:22:28;15.70;92.90
38684;DHT22;24910;53.248;-6.134;2024-02-15T15:24:58;15.70;92.90
38684;DHT22;24910;53.248;-6.134;2024-02-15T15:27:27;15.70;93.00
38684;DHT22;24910;53.248;-6.134;2024-02-15T15:29:56;15.70;93.00
38684;DHT22;24910;53.248;-6.134;2024-02-15T15:32:26;15.60;92.90
38684;DHT22;24910;53.248;-6.134;2024-02-15T15:34:56;15.60;92.90
38684;DHT22;24910;53.248;-6.134;2024-02-15T15:37:26;15.50;92.90
38684;DHT22;24910;53.248;-6.134;2024-02-15T15:39:56;15.60;92.90
38684;DHT22;24910;53.248;-6.134;2024-02-15T15:42:26;15.50;92.90
38684;DHT22;24910;53.248;-6.134;2024-02-15T15:44:55;15.50;92.90